Berta — V2BQ6 — position and weather

sailwx.info

Track history (hours):
 
Tides and Currents Weather Stations Pressure Air Temp Water Temp Dewpoint Dewpoint Depression Visibility Wind Speed Wind Dir Waves Ship Positions

Berta

Last reported at 2018-Apr-23 01:36 UTC. Time now 2018-Apr-26 03:47 UTC.
Position N 40°29' E 026°56'.

Length 118 m; draft 6.9 m.

Type: Cargo ship. MMSI: 304586000.

Date/timePositionNaut miles runAvg speedWind from/ knotsBaromVisibWave heightAir tempDewpointWater temp
2018-Apr-23 01:36N 40°29' E 026°56'312.5
2018-Apr-23 01:23N 40°28' E 026°53'512.3
2018-Apr-23 00:58N 40°26' E 026°46'2111.3
2018-Apr-22 23:04N 40°12' E 026°25'110.4
2018-Apr-22 22:56N 40°12' E 026°23'25 9.0
2018-Apr-22 20:08N 39°56' E 025°58'212.5
2018-Apr-22 20:00N 39°54' E 025°56'  
2018-Apr-19 18:26N 36°27' E 014°47'613.6
2018-Apr-19 18:00N 36°29' E 014°40'712.8
2018-Apr-19 17:27N 36°30' E 014°32'612.9
2018-Apr-19 16:59N 36°31' E 014°25'713.4
2018-Apr-19 16:30N 36°32' E 014°17'713.2
2018-Apr-19 15:57N 36°35' E 014°08'715.4
2018-Apr-19 15:29N 36°37' E 013°60'510.5
2018-Apr-19 14:59N 36°39' E 013°53'713.2
2018-Apr-19 14:29N 36°41' E 013°46'612.9
2018-Apr-19 14:00N 36°43' E 013°38'612.6
2018-Apr-19 13:30N 36°44' E 013°31'  
2018-Apr-17 00:34N 38°51' E 002°26'2012.5
2018-Apr-16 23:00N 39°10' E 002°19'11412.7
2018-Apr-16 14:01N 41°04' E 002°11'113.3
2018-Apr-16 13:58N 41°05' E 002°11'613.0
2018-Apr-16 13:30N 41°11' E 002°11'612.8
2018-Apr-16 13:00N 41°17' E 002°11'4 6.8
2018-Apr-16 12:28N 41°21' E 002°10'0 0.0
2018-Apr-16 11:58N 41°21' E 002°10'0 0.0
2018-Apr-16 11:28N 41°21' E 002°10'0 0.0
2018-Apr-16 10:58N 41°21' E 002°10'0 0.0
2018-Apr-16 10:28N 41°21' E 002°10'0 0.0
2018-Apr-16 09:58N 41°21' E 002°10'0 0.0
2018-Apr-16 09:28N 41°21' E 002°10'0 0.0
2018-Apr-16 08:58N 41°21' E 002°10'0 0.0
2018-Apr-16 08:28N 41°21' E 002°10'0 0.0
2018-Apr-16 07:58N 41°21' E 002°10'0 0.0
2018-Apr-16 07:28N 41°21' E 002°10'0 0.4
2018-Apr-16 07:00N 41°21' E 002°10'3 6.7
2018-Apr-16 06:31N 41°17' E 002°11'1 2.1
2018-Apr-16 06:01N 41°17' E 002°12'510.6
2018-Apr-16 05:30N 41°13' E 002°18'713.8
2018-Apr-16 05:00N 41°10' E 002°26'813.8
2018-Apr-16 04:25N 41°05' E 002°35'613.6
2018-Apr-16 04:00N 41°02' E 002°41'713.5
2018-Apr-16 03:31N 40°59' E 002°49'1913.0
2018-Apr-16 02:01N 40°48' E 003°10'113.2
2018-Apr-16 01:57N 40°48' E 003°11'613.5
2018-Apr-16 01:30N 40°44' E 003°17'913.8
2018-Apr-16 00:50N 40°39' E 003°27'  
Track history (hours):
 
Tides and Currents Weather Stations Pressure Air Temp Water Temp Dewpoint Dewpoint Depression Visibility Wind Speed Wind Dir Waves Ship Positions

Berta

Last reported at 2018-Apr-23 01:36 UTC. Time now 2018-Apr-26 03:47 UTC.
Position N 40°29' E 026°56'.

Length 118 m; draft 6.9 m.

Type: Cargo ship. MMSI: 304586000.

Date/timePositionNaut miles runAvg speedWind from/ knotsBaromVisibWave heightAir tempDewpointWater temp
2018-Apr-23 01:36N 40°29' E 026°56'312.5
2018-Apr-23 01:23N 40°28' E 026°53'512.3
2018-Apr-23 00:58N 40°26' E 026°46'2111.3
2018-Apr-22 23:04N 40°12' E 026°25'110.4
2018-Apr-22 22:56N 40°12' E 026°23'25 9.0
2018-Apr-22 20:08N 39°56' E 025°58'212.5
2018-Apr-22 20:00N 39°54' E 025°56'  
2018-Apr-19 18:26N 36°27' E 014°47'613.6
2018-Apr-19 18:00N 36°29' E 014°40'712.8
2018-Apr-19 17:27N 36°30' E 014°32'612.9
2018-Apr-19 16:59N 36°31' E 014°25'713.4
2018-Apr-19 16:30N 36°32' E 014°17'713.2
2018-Apr-19 15:57N 36°35' E 014°08'715.4
2018-Apr-19 15:29N 36°37' E 013°60'510.5
2018-Apr-19 14:59N 36°39' E 013°53'713.2
2018-Apr-19 14:29N 36°41' E 013°46'612.9
2018-Apr-19 14:00N 36°43' E 013°38'612.6
2018-Apr-19 13:30N 36°44' E 013°31'  
2018-Apr-17 00:34N 38°51' E 002°26'2012.5
2018-Apr-16 23:00N 39°10' E 002°19'11412.7
2018-Apr-16 14:01N 41°04' E 002°11'113.3
2018-Apr-16 13:58N 41°05' E 002°11'613.0
2018-Apr-16 13:30N 41°11' E 002°11'612.8
2018-Apr-16 13:00N 41°17' E 002°11'4 6.8
2018-Apr-16 12:28N 41°21' E 002°10'0 0.0
2018-Apr-16 11:58N 41°21' E 002°10'0 0.0
2018-Apr-16 11:28N 41°21' E 002°10'0 0.0
2018-Apr-16 10:58N 41°21' E 002°10'0 0.0
2018-Apr-16 10:28N 41°21' E 002°10'0 0.0
2018-Apr-16 09:58N 41°21' E 002°10'0 0.0
2018-Apr-16 09:28N 41°21' E 002°10'0 0.0
2018-Apr-16 08:58N 41°21' E 002°10'0 0.0
2018-Apr-16 08:28N 41°21' E 002°10'0 0.0
2018-Apr-16 07:58N 41°21' E 002°10'0 0.0
2018-Apr-16 07:28N 41°21' E 002°10'0 0.4
2018-Apr-16 07:00N 41°21' E 002°10'3 6.7
2018-Apr-16 06:31N 41°17' E 002°11'1 2.1
2018-Apr-16 06:01N 41°17' E 002°12'510.6
2018-Apr-16 05:30N 41°13' E 002°18'713.8
2018-Apr-16 05:00N 41°10' E 002°26'813.8
2018-Apr-16 04:25N 41°05' E 002°35'613.6
2018-Apr-16 04:00N 41°02' E 002°41'713.5
2018-Apr-16 03:31N 40°59' E 002°49'1913.0
2018-Apr-16 02:01N 40°48' E 003°10'113.2
2018-Apr-16 01:57N 40°48' E 003°11'613.5
2018-Apr-16 01:30N 40°44' E 003°17'913.8
2018-Apr-16 00:50N 40°39' E 003°27'  

Dump ship's entire track history